createdAt,value
2018-03-14T00:00:36.016Z,1005.33
2018-03-14T00:01:35.992Z,1005.26
2018-03-14T00:02:35.962Z,1005.35
2018-03-14T00:03:35.930Z,1005.33
2018-03-14T00:04:35.915Z,1005.30
2018-03-14T00:05:35.868Z,1005.32
2018-03-14T00:06:35.844Z,1005.36
2018-03-14T00:07:35.810Z,1005.36
2018-03-14T00:08:35.778Z,1005.36
2018-03-14T00:09:35.749Z,1005.43
2018-03-14T00:10:35.719Z,1005.39
2018-03-14T00:11:35.685Z,1005.45
2018-03-14T00:12:35.654Z,1005.38
2018-03-14T00:13:35.633Z,1005.33
2018-03-14T00:14:35.596Z,1005.41
2018-03-14T00:15:35.568Z,1005.43
2018-03-14T00:16:35.544Z,1005.44
2018-03-14T00:17:35.520Z,1005.44
2018-03-14T00:18:35.489Z,1005.43
2018-03-14T00:19:35.457Z,1005.46
2018-03-14T00:20:35.420Z,1005.46
2018-03-14T00:21:35.388Z,1005.45
2018-03-14T00:22:35.361Z,1005.50
2018-03-14T00:23:35.335Z,1005.46
2018-03-14T00:24:35.300Z,1005.47
2018-03-14T00:25:35.271Z,1005.50
2018-03-14T00:26:35.246Z,1005.48
2018-03-14T00:27:35.209Z,1005.47
2018-03-14T00:28:35.178Z,1005.49
2018-03-14T00:29:35.150Z,1005.57
2018-03-14T00:30:35.125Z,1005.49
2018-03-14T00:31:35.099Z,1005.50
2018-03-14T00:32:35.067Z,1005.47
2018-03-14T00:33:35.035Z,1005.48
2018-03-14T00:34:35.000Z,1005.42
2018-03-14T00:35:34.975Z,1005.48
2018-03-14T00:36:34.943Z,1005.41
2018-03-14T00:37:34.911Z,1005.43
2018-03-14T00:38:34.892Z,1005.39
2018-03-14T00:39:34.852Z,1005.43
2018-03-14T00:40:34.822Z,1005.47
2018-03-14T00:41:34.799Z,1005.47
2018-03-14T00:42:34.767Z,1005.48
2018-03-14T00:43:34.736Z,1005.46
2018-03-14T00:44:34.701Z,1005.45
2018-03-14T00:45:34.681Z,1005.48
2018-03-14T00:46:34.651Z,1005.44
2018-03-14T00:47:34.620Z,1005.42
2018-03-14T00:48:34.587Z,1005.44
2018-03-14T00:49:34.557Z,1005.42
2018-03-14T00:50:34.531Z,1005.45
2018-03-14T00:51:34.498Z,1005.48
2018-03-14T00:52:34.464Z,1005.44
2018-03-14T00:53:34.434Z,1005.46
2018-03-14T00:54:34.412Z,1005.44
2018-03-14T00:55:34.381Z,1005.45
2018-03-14T00:56:34.346Z,1005.47
2018-03-14T00:57:34.327Z,1005.50
2018-03-14T00:58:34.285Z,1005.50
2018-03-14T00:59:34.257Z,1005.50
2018-03-14T01:00:34.227Z,1005.51
2018-03-14T01:01:34.200Z,1005.43
2018-03-14T01:02:34.164Z,1005.51
2018-03-14T01:03:34.135Z,1005.48
2018-03-14T01:04:34.112Z,1005.57
2018-03-14T01:05:34.082Z,1005.56
2018-03-14T01:06:34.056Z,1005.53
2018-03-14T01:07:34.032Z,1005.56
2018-03-14T01:08:33.995Z,1005.53
2018-03-14T01:09:33.961Z,1005.59
2018-03-14T01:10:33.932Z,1005.61
2018-03-14T01:11:33.903Z,1005.59
2018-03-14T01:12:33.908Z,1005.56
2018-03-14T01:13:33.840Z,1005.61
2018-03-14T01:14:33.807Z,1005.67
2018-03-14T01:15:33.791Z,1005.69
2018-03-14T01:16:33.750Z,1005.69
2018-03-14T01:17:33.718Z,1005.69
2018-03-14T01:18:33.689Z,1005.59
2018-03-14T01:19:33.677Z,1005.67
2018-03-14T01:20:33.634Z,1005.66
2018-03-14T01:21:33.605Z,1005.63
2018-03-14T01:22:33.570Z,1005.68
2018-03-14T01:23:33.539Z,1005.66
2018-03-14T01:24:33.514Z,1005.64
2018-03-14T01:25:33.479Z,1005.59
2018-03-14T01:26:33.450Z,1005.58
2018-03-14T01:27:33.427Z,1005.71
2018-03-14T01:28:33.394Z,1005.63
2018-03-14T01:29:33.362Z,1005.70
2018-03-14T01:30:33.332Z,1005.62
2018-03-14T01:31:33.301Z,1005.71
2018-03-14T01:32:33.270Z,1005.65
2018-03-14T01:33:33.243Z,1005.59
2018-03-14T01:34:33.215Z,1005.63
2018-03-14T01:35:33.179Z,1005.73
2018-03-14T01:36:33.151Z,1005.75
2018-03-14T01:37:33.120Z,1005.78
2018-03-14T01:38:33.092Z,1005.72
2018-03-14T01:39:33.059Z,1005.72
2018-03-14T01:40:33.028Z,1005.80
2018-03-14T01:41:33.005Z,1005.72
2018-03-14T01:42:32.975Z,1005.74
2018-03-14T01:43:32.945Z,1005.70
2018-03-14T01:44:32.912Z,1005.74
2018-03-14T01:45:32.886Z,1005.75
2018-03-14T01:46:32.850Z,1005.77
2018-03-14T01:47:32.822Z,1005.72
2018-03-14T01:48:32.793Z,1005.76
2018-03-14T01:49:32.765Z,1005.78
2018-03-14T01:50:32.733Z,1005.76
2018-03-14T01:51:32.704Z,1005.70
2018-03-14T01:52:32.670Z,1005.81
2018-03-14T01:53:32.640Z,1005.80
2018-03-14T01:54:32.609Z,1005.82
2018-03-14T01:55:32.579Z,1005.85
2018-03-14T01:56:32.550Z,1005.84
2018-03-14T01:57:32.518Z,1005.87
2018-03-14T01:58:32.496Z,1005.91
2018-03-14T01:59:32.461Z,1005.91
2018-03-14T02:00:32.432Z,1005.92
2018-03-14T02:01:32.400Z,1005.88
2018-03-14T02:02:32.373Z,1005.93
2018-03-14T02:03:32.345Z,1005.91
2018-03-14T02:04:32.310Z,1005.86
2018-03-14T02:05:32.281Z,1005.92
2018-03-14T02:06:32.250Z,1005.90
2018-03-14T02:07:32.221Z,1005.89
2018-03-14T02:08:32.194Z,1005.93
2018-03-14T02:09:32.162Z,1005.94
2018-03-14T02:10:32.133Z,1005.89
2018-03-14T02:11:32.107Z,1005.98
2018-03-14T02:12:32.076Z,1005.98
2018-03-14T02:13:32.040Z,1005.97
2018-03-14T02:14:32.020Z,1006.00
2018-03-14T02:15:31.992Z,1006.00
2018-03-14T02:16:31.959Z,1005.98
2018-03-14T02:17:31.922Z,1006.01
2018-03-14T02:18:31.893Z,1006.01
2018-03-14T02:19:31.861Z,1006.06
2018-03-14T02:20:31.837Z,1006.07
2018-03-14T02:21:31.810Z,1006.07
2018-03-14T02:22:31.778Z,1006.09
2018-03-14T02:23:31.749Z,1006.07
2018-03-14T02:24:31.718Z,1006.11
2018-03-14T02:25:31.687Z,1006.11
2018-03-14T02:26:31.659Z,1006.10
2018-03-14T02:27:31.626Z,1006.11
2018-03-14T02:28:31.593Z,1006.15
2018-03-14T02:29:31.560Z,1006.10
2018-03-14T02:30:31.539Z,1006.15
2018-03-14T02:31:31.504Z,1006.13
2018-03-14T02:32:31.477Z,1006.18
2018-03-14T02:33:31.446Z,1006.14
2018-03-14T02:34:31.413Z,1006.21
2018-03-14T02:35:31.385Z,1006.18
2018-03-14T02:36:31.352Z,1006.19
2018-03-14T02:37:31.327Z,1006.20
2018-03-14T02:38:31.298Z,1006.17
2018-03-14T02:39:31.265Z,1006.25
2018-03-14T02:40:31.230Z,1006.26
2018-03-14T02:41:31.200Z,1006.24
2018-03-14T02:42:31.174Z,1006.34
2018-03-14T02:43:31.141Z,1006.30
2018-03-14T02:44:31.114Z,1006.34
2018-03-14T02:45:31.086Z,1006.36
2018-03-14T02:46:31.053Z,1006.37
2018-03-14T02:47:31.026Z,1006.42
2018-03-14T02:48:30.999Z,1006.34
2018-03-14T02:49:30.964Z,1006.37
2018-03-14T02:50:30.932Z,1006.38
2018-03-14T02:51:30.914Z,1006.47
2018-03-14T02:52:30.876Z,1006.45
2018-03-14T02:53:30.852Z,1006.45
2018-03-14T02:54:30.815Z,1006.47
2018-03-14T02:55:30.781Z,1006.46
2018-03-14T02:56:30.763Z,1006.51
2018-03-14T02:57:30.730Z,1006.49
2018-03-14T02:58:30.694Z,1006.47
2018-03-14T02:59:30.666Z,1006.47
2018-03-14T03:00:31.033Z,1006.49
2018-03-14T03:01:30.606Z,1006.50
2018-03-14T03:02:30.576Z,1006.49
2018-03-14T03:03:30.541Z,1006.50
2018-03-14T03:04:30.511Z,1006.57
2018-03-14T03:05:30.479Z,1006.55
2018-03-14T03:06:30.454Z,1006.56
2018-03-14T03:07:30.426Z,1006.56
2018-03-14T03:08:30.391Z,1006.56
2018-03-14T03:09:30.361Z,1006.58
2018-03-14T03:10:30.337Z,1006.55
2018-03-14T03:11:30.307Z,1006.59
2018-03-14T03:12:30.278Z,1006.54
2018-03-14T03:13:30.243Z,1006.53
2018-03-14T03:14:30.222Z,1006.58
2018-03-14T03:15:30.185Z,1006.50
2018-03-14T03:16:30.155Z,1006.54
2018-03-14T03:17:30.129Z,1006.54
2018-03-14T03:18:30.102Z,1006.60
2018-03-14T03:19:30.068Z,1006.59
2018-03-14T03:20:30.035Z,1006.56
2018-03-14T03:21:30.003Z,1006.59
2018-03-14T03:22:29.975Z,1006.56
2018-03-14T03:23:29.947Z,1006.63
2018-03-14T03:24:29.910Z,1006.59
2018-03-14T03:25:29.879Z,1006.63
2018-03-14T03:26:29.858Z,1006.63
2018-03-14T03:27:29.824Z,1006.71
2018-03-14T03:28:29.790Z,1006.71
2018-03-14T03:29:29.764Z,1006.75
2018-03-14T03:30:29.733Z,1006.73
2018-03-14T03:31:29.720Z,1006.78
2018-03-14T03:32:29.678Z,1006.78
2018-03-14T03:33:29.646Z,1006.81
2018-03-14T03:34:29.614Z,1006.85
2018-03-14T03:35:29.584Z,1006.83
2018-03-14T03:36:29.549Z,1006.89
2018-03-14T03:37:29.524Z,1006.88
2018-03-14T03:38:29.490Z,1006.84
2018-03-14T03:39:29.462Z,1006.82
2018-03-14T03:40:29.430Z,1006.82
2018-03-14T03:41:29.406Z,1006.91
2018-03-14T03:42:29.367Z,1006.94
2018-03-14T03:43:29.342Z,1007.00
2018-03-14T03:44:29.312Z,1007.03
2018-03-14T03:45:29.278Z,1006.88
2018-03-14T03:46:29.250Z,1007.01
2018-03-14T03:47:29.223Z,1007.05
2018-03-14T03:48:29.187Z,1007.00
2018-03-14T03:49:29.165Z,1007.00
2018-03-14T03:50:29.128Z,1007.06
2018-03-14T03:51:29.102Z,1006.99
2018-03-14T03:52:29.070Z,1007.07
2018-03-14T03:53:29.290Z,1007.04
2018-03-14T03:54:29.009Z,1007.10
2018-03-14T03:55:28.982Z,1007.08
2018-03-14T03:56:28.952Z,1007.08
2018-03-14T03:57:28.918Z,1007.10
2018-03-14T03:58:28.890Z,1007.09
2018-03-14T03:59:28.893Z,1007.13
2018-03-14T04:00:28.829Z,1007.09
2018-03-14T04:01:28.795Z,1007.13
2018-03-14T04:02:28.789Z,1007.12
2018-03-14T04:03:28.739Z,1007.14
2018-03-14T04:04:28.707Z,1007.13
2018-03-14T04:05:28.727Z,1007.15
2018-03-14T04:06:28.655Z,1007.17
2018-03-14T04:07:28.611Z,1007.13
2018-03-14T04:08:28.589Z,1007.19
2018-03-14T04:09:28.557Z,1007.10
2018-03-14T04:10:28.523Z,1007.18
2018-03-14T04:11:28.796Z,1007.19
2018-03-14T04:12:28.460Z,1007.22
2018-03-14T04:13:28.436Z,1007.21
2018-03-14T04:14:28.401Z,1007.13
2018-03-14T04:15:28.376Z,1007.21
2018-03-14T04:16:28.342Z,1007.21
2018-03-14T04:17:28.312Z,1007.25
2018-03-14T04:18:28.282Z,1007.22
2018-03-14T04:19:28.255Z,1007.26
2018-03-14T04:20:28.223Z,1007.25
2018-03-14T04:21:28.188Z,1007.30
2018-03-14T04:22:28.163Z,1007.28
2018-03-14T04:23:28.135Z,1007.35
2018-03-14T04:24:28.102Z,1007.36
2018-03-14T04:25:28.066Z,1007.34
2018-03-14T04:26:28.039Z,1007.37
2018-03-14T04:27:28.014Z,1007.41
2018-03-14T04:28:28.280Z,1007.37
2018-03-14T04:29:27.950Z,1007.37
2018-03-14T04:30:27.920Z,1007.31
2018-03-14T04:31:27.932Z,1007.34
2018-03-14T04:32:27.861Z,1007.33
2018-03-14T04:33:27.832Z,1007.35
2018-03-14T04:34:27.801Z,1007.39
2018-03-14T04:35:27.769Z,1007.37
2018-03-14T04:36:27.738Z,1007.34
2018-03-14T04:37:27.711Z,1007.29
2018-03-14T04:38:27.683Z,1007.37
2018-03-14T04:39:27.664Z,1007.33
2018-03-14T04:40:27.621Z,1007.38
2018-03-14T04:41:27.591Z,1007.38
2018-03-14T04:42:27.558Z,1007.34
2018-03-14T04:43:27.529Z,1007.35
2018-03-14T04:44:27.497Z,1007.37
2018-03-14T04:45:27.470Z,1007.38
2018-03-14T04:46:27.445Z,1007.38
2018-03-14T04:47:27.409Z,1007.39
2018-03-14T04:48:27.370Z,1007.41
2018-03-14T04:49:27.339Z,1007.42
2018-03-14T04:50:27.315Z,1007.49
2018-03-14T04:51:27.285Z,1007.43
2018-03-14T04:52:28.052Z,1007.47
2018-03-14T04:53:27.221Z,1007.49
2018-03-14T04:54:27.190Z,1007.54
2018-03-14T04:55:27.165Z,1007.55
2018-03-14T04:56:27.136Z,1007.53
2018-03-14T04:57:27.103Z,1007.55
2018-03-14T04:58:27.069Z,1007.52
2018-03-14T04:59:27.038Z,1007.52
2018-03-14T05:00:27.014Z,1007.52
2018-03-14T05:01:27.008Z,1007.52
2018-03-14T05:02:26.955Z,1007.55
2018-03-14T05:03:26.915Z,1007.59
2018-03-14T05:04:26.886Z,1007.58
2018-03-14T05:05:26.858Z,1007.55
2018-03-14T05:06:26.833Z,1007.52
2018-03-14T05:07:26.806Z,1007.57
2018-03-14T05:08:26.767Z,1007.49
2018-03-14T05:09:26.733Z,1007.55
2018-03-14T05:10:26.704Z,1007.57
2018-03-14T05:11:26.677Z,1007.61
2018-03-14T05:12:26.649Z,1007.62
2018-03-14T05:13:26.613Z,1007.68
2018-03-14T05:14:26.593Z,1007.66
2018-03-14T05:15:26.552Z,1007.72
2018-03-14T05:16:26.527Z,1007.70
2018-03-14T05:17:26.530Z,1007.72
2018-03-14T05:18:26.462Z,1007.66
2018-03-14T05:19:26.430Z,1007.68
2018-03-14T05:20:26.403Z,1007.71
2018-03-14T05:21:26.381Z,1007.78
2018-03-14T05:22:26.339Z,1007.77
2018-03-14T05:23:26.326Z,1007.82
2018-03-14T05:24:26.285Z,1007.80
2018-03-14T05:25:26.250Z,1007.84
2018-03-14T05:26:26.218Z,1007.84
2018-03-14T05:27:26.192Z,1007.84
2018-03-14T05:28:26.157Z,1007.82
2018-03-14T05:29:26.129Z,1007.86
2018-03-14T05:30:26.101Z,1007.91
2018-03-14T05:31:26.072Z,1007.87
2018-03-14T05:32:26.042Z,1007.90
2018-03-14T05:33:26.013Z,1007.88
2018-03-14T05:34:25.976Z,1007.90
2018-03-14T05:35:25.953Z,1007.90
2018-03-14T05:36:25.916Z,1007.94
2018-03-14T05:37:25.883Z,1007.97
2018-03-14T05:38:25.850Z,1007.97
2018-03-14T05:39:25.826Z,1007.97
2018-03-14T05:40:25.788Z,1007.97
2018-03-14T05:41:25.763Z,1007.99
2018-03-14T05:42:25.732Z,1008.01
2018-03-14T05:43:25.702Z,1007.97
2018-03-14T05:44:25.667Z,1008.00
2018-03-14T05:45:25.644Z,1008.02
2018-03-14T05:46:25.614Z,1008.01
2018-03-14T05:47:25.576Z,1007.93
2018-03-14T05:48:25.556Z,1007.96
2018-03-14T05:49:25.519Z,1007.97
2018-03-14T05:50:25.487Z,1007.99
2018-03-14T05:51:25.457Z,1007.99
2018-03-14T05:52:25.431Z,1008.00
2018-03-14T05:53:25.400Z,1008.04
2018-03-14T05:54:25.366Z,1008.01
2018-03-14T05:55:25.332Z,1008.05
2018-03-14T05:56:25.313Z,1008.07
2018-03-14T05:57:25.275Z,1008.07
2018-03-14T05:58:25.244Z,1008.07
2018-03-14T05:59:25.213Z,1008.02
2018-03-14T06:00:25.180Z,1007.98
2018-03-14T06:01:25.152Z,1008.01
2018-03-14T06:02:25.125Z,1008.03
2018-03-14T06:03:25.095Z,1008.07
2018-03-14T06:04:25.069Z,1008.08
2018-03-14T06:05:25.088Z,1008.11
2018-03-14T06:06:25.006Z,1008.20
2018-03-14T06:07:24.978Z,1008.16
2018-03-14T06:08:24.946Z,1008.12
2018-03-14T06:09:24.908Z,1008.24
2018-03-14T06:10:24.878Z,1008.20
2018-03-14T06:11:24.852Z,1008.22
2018-03-14T06:12:24.828Z,1008.24
2018-03-14T06:13:24.815Z,1008.28
2018-03-14T06:14:24.758Z,1008.29
2018-03-14T06:15:24.727Z,1008.27
2018-03-14T06:16:24.742Z,1008.31
2018-03-14T06:17:24.666Z,1008.28
2018-03-14T06:18:24.637Z,1008.33
2018-03-14T06:19:24.608Z,1008.34
2018-03-14T06:20:24.574Z,1008.37
2018-03-14T06:21:24.542Z,1008.33
2018-03-14T06:22:24.515Z,1008.32
2018-03-14T06:23:24.488Z,1008.29
2018-03-14T06:24:24.456Z,1008.40
2018-03-14T06:25:24.420Z,1008.44
2018-03-14T06:26:24.400Z,1008.47
2018-03-14T06:27:24.365Z,1008.48
2018-03-14T06:28:24.331Z,1008.48
2018-03-14T06:29:24.312Z,1008.51
2018-03-14T06:30:24.275Z,1008.50
2018-03-14T06:31:24.244Z,1008.53
2018-03-14T06:32:24.212Z,1008.55
2018-03-14T06:33:24.178Z,1008.57
2018-03-14T06:34:24.153Z,1008.59
2018-03-14T06:35:24.126Z,1008.62
2018-03-14T06:36:24.160Z,1008.62
2018-03-14T06:37:24.063Z,1008.62
2018-03-14T06:38:24.035Z,1008.57
2018-03-14T06:39:24.007Z,1008.69
2018-03-14T06:40:23.969Z,1008.63
2018-03-14T06:41:23.945Z,1008.62
2018-03-14T06:42:23.914Z,1008.59
2018-03-14T06:43:24.138Z,1008.67
2018-03-14T06:44:23.856Z,1008.75
2018-03-14T06:45:23.829Z,1008.73
2018-03-14T06:46:23.791Z,1008.74
2018-03-14T06:47:23.760Z,1008.67
2018-03-14T06:48:23.733Z,1008.71
2018-03-14T06:49:23.705Z,1008.71
2018-03-14T06:50:23.672Z,1008.74
2018-03-14T06:51:23.648Z,1008.75
2018-03-14T06:52:23.612Z,1008.80
2018-03-14T06:53:23.585Z,1008.82
2018-03-14T06:54:23.557Z,1008.84
2018-03-14T06:55:23.523Z,1008.91
2018-03-14T06:56:23.493Z,1008.94
2018-03-14T06:57:23.463Z,1008.95
2018-03-14T06:58:23.434Z,1008.92
2018-03-14T06:59:23.401Z,1008.92
2018-03-14T07:00:23.370Z,1008.92
2018-03-14T07:01:23.354Z,1008.94
2018-03-14T07:02:23.321Z,1008.94
2018-03-14T07:03:23.286Z,1009.02
2018-03-14T07:04:23.255Z,1009.03
2018-03-14T07:05:23.225Z,1008.97
2018-03-14T07:06:23.194Z,1009.02
2018-03-14T07:07:23.165Z,1009.11
2018-03-14T07:08:23.140Z,1009.08
2018-03-14T07:09:23.104Z,1009.05
2018-03-14T07:10:23.079Z,1009.11
2018-03-14T07:11:23.050Z,1009.04
2018-03-14T07:12:23.022Z,1009.10
2018-03-14T07:13:22.990Z,1009.09
2018-03-14T07:14:22.965Z,1009.10
2018-03-14T07:15:22.942Z,1009.09
2018-03-14T07:16:22.904Z,1009.10
2018-03-14T07:17:22.924Z,1009.07
2018-03-14T07:18:22.841Z,1009.06
2018-03-14T07:19:22.810Z,1009.08
2018-03-14T07:20:22.781Z,1009.06
2018-03-14T07:21:22.753Z,1009.11
2018-03-14T07:22:22.722Z,1009.08
2018-03-14T07:23:22.699Z,1009.13
2018-03-14T07:24:22.661Z,1009.11
2018-03-14T07:25:22.642Z,1009.12
2018-03-14T07:26:22.604Z,1009.15
2018-03-14T07:27:22.583Z,1009.11
2018-03-14T07:28:22.552Z,1009.15
2018-03-14T07:29:22.518Z,1009.16
2018-03-14T07:30:22.737Z,1009.15
2018-03-14T07:31:22.460Z,1009.20
2018-03-14T07:32:22.426Z,1009.24
2018-03-14T07:33:22.398Z,1009.24
2018-03-14T07:34:22.373Z,1009.27
2018-03-14T07:35:22.345Z,1009.24
2018-03-14T07:36:22.375Z,1009.32
2018-03-14T07:37:22.286Z,1009.31
2018-03-14T07:38:22.255Z,1009.34
2018-03-14T07:39:22.222Z,1009.36
2018-03-14T07:40:22.197Z,1009.39
2018-03-14T07:41:22.162Z,1009.40
2018-03-14T07:42:22.140Z,1009.41
2018-03-14T07:43:22.116Z,1009.42
2018-03-14T07:44:22.082Z,1009.41
2018-03-14T07:45:22.049Z,1009.37
2018-03-14T07:46:22.017Z,1009.37
2018-03-14T07:47:21.992Z,1009.40
2018-03-14T07:48:21.964Z,1009.41
2018-03-14T07:49:21.931Z,1009.47
2018-03-14T07:50:21.904Z,1009.47
2018-03-14T07:51:21.873Z,1009.48
2018-03-14T07:52:21.849Z,1009.49
2018-03-14T07:53:22.067Z,1009.49
2018-03-14T07:54:21.799Z,1009.49
2018-03-14T07:55:21.757Z,1009.51
2018-03-14T07:56:21.733Z,1009.55
2018-03-14T07:57:21.707Z,1009.52
2018-03-14T07:58:21.676Z,1009.54
2018-03-14T07:59:21.652Z,1009.61
2018-03-14T08:00:21.617Z,1009.61
2018-03-14T08:01:21.589Z,1009.56
2018-03-14T08:02:21.560Z,1009.59
2018-03-14T08:03:21.530Z,1009.55
2018-03-14T08:04:21.508Z,1009.59
2018-03-14T08:05:21.471Z,1009.59
2018-03-14T08:06:21.451Z,1009.56
2018-03-14T08:07:21.420Z,1009.61
2018-03-14T08:08:21.386Z,1009.63
2018-03-14T08:09:21.382Z,1009.64
2018-03-14T08:10:21.334Z,1009.63
2018-03-14T08:11:21.312Z,1009.66
2018-03-14T08:12:21.282Z,1009.68
2018-03-14T08:13:21.262Z,1009.68
2018-03-14T08:14:21.223Z,1009.71
2018-03-14T08:15:21.191Z,1009.70
2018-03-14T08:16:21.170Z,1009.72
2018-03-14T08:17:21.136Z,1009.73
2018-03-14T08:18:21.106Z,1009.68
2018-03-14T08:19:21.089Z,1009.70
2018-03-14T08:20:21.085Z,1009.69
2018-03-14T08:21:21.039Z,1009.70
2018-03-14T08:22:20.995Z,1009.80
2018-03-14T08:23:20.976Z,1009.85
2018-03-14T08:24:20.945Z,1009.85
2018-03-14T08:25:20.915Z,1009.91
2018-03-14T08:26:20.890Z,1009.95
2018-03-14T08:27:20.861Z,1010.00
2018-03-14T08:28:20.830Z,1010.07
2018-03-14T08:29:20.804Z,1010.05
2018-03-14T08:30:20.778Z,1010.11
2018-03-14T08:31:20.749Z,1010.01
2018-03-14T08:32:20.725Z,1010.04
2018-03-14T08:33:20.691Z,1010.08
2018-03-14T08:34:20.695Z,1010.24
2018-03-14T08:35:20.643Z,1010.12
2018-03-14T08:36:20.613Z,1010.04
2018-03-14T08:37:20.585Z,1010.11
2018-03-14T08:38:20.564Z,1010.15
2018-03-14T08:39:20.530Z,1010.17
2018-03-14T08:40:20.519Z,1010.19
2018-03-14T08:41:20.482Z,1010.21
2018-03-14T08:42:20.454Z,1010.24
2018-03-14T08:43:20.445Z,1010.25
2018-03-14T08:44:20.395Z,1010.36
2018-03-14T08:45:20.719Z,1010.28
2018-03-14T08:46:20.346Z,1010.22
2018-03-14T08:47:20.325Z,1010.20
2018-03-14T08:48:20.287Z,1010.59
2018-03-14T08:49:20.263Z,1010.34
2018-03-14T08:50:20.291Z,1010.32
2018-03-14T08:51:20.473Z,1010.41
2018-03-14T08:52:20.196Z,1010.72
2018-03-14T08:53:20.159Z,1010.33
2018-03-14T08:54:20.176Z,1010.33
2018-03-14T08:55:20.115Z,1010.29
2018-03-14T08:56:20.085Z,1010.29
2018-03-14T08:57:20.061Z,1010.35
2018-03-14T08:58:20.030Z,1010.40
2018-03-14T08:59:20.009Z,1010.40
2018-03-14T09:00:19.981Z,1010.38
2018-03-14T09:01:19.987Z,1010.28
2018-03-14T09:02:19.942Z,1010.27
2018-03-14T09:03:19.909Z,1010.26
2018-03-14T09:04:19.879Z,1010.22
2018-03-14T09:05:19.855Z,1010.24
2018-03-14T09:06:19.828Z,1010.21
2018-03-14T09:07:19.799Z,1010.16
2018-03-14T09:08:19.776Z,1010.23
2018-03-14T09:09:19.744Z,1010.30
2018-03-14T09:10:19.724Z,1010.25
2018-03-14T09:11:19.705Z,1010.26
2018-03-14T09:12:19.677Z,1010.26
2018-03-14T09:13:19.649Z,1010.22
2018-03-14T09:14:19.616Z,1010.24
2018-03-14T09:15:19.597Z,1010.25
2018-03-14T09:16:19.576Z,1010.31
2018-03-14T09:17:19.546Z,1010.32
2018-03-14T09:18:19.519Z,1010.35
2018-03-14T09:19:19.497Z,1010.37
2018-03-14T09:20:19.460Z,1010.39
2018-03-14T09:21:19.447Z,1010.37
2018-03-14T09:22:19.412Z,1010.37
2018-03-14T09:23:19.380Z,1010.42
2018-03-14T09:24:19.356Z,1010.45
2018-03-14T09:25:19.339Z,1010.47
2018-03-14T09:26:19.313Z,1010.49
2018-03-14T09:27:19.284Z,1010.45
2018-03-14T09:28:19.246Z,1010.42
2018-03-14T09:29:19.226Z,1010.46
2018-03-14T09:30:19.199Z,1010.51
2018-03-14T09:31:19.170Z,1010.52
2018-03-14T09:32:19.150Z,1010.58
2018-03-14T09:33:19.125Z,1010.59
2018-03-14T09:34:19.090Z,1010.60
2018-03-14T09:35:19.077Z,1010.60
2018-03-14T09:36:19.039Z,1010.57
2018-03-14T09:37:19.016Z,1010.51
2018-03-14T09:38:18.992Z,1010.56
2018-03-14T09:39:18.969Z,1010.58
2018-03-14T09:40:18.940Z,1010.59
2018-03-14T09:41:18.929Z,1010.59
2018-03-14T09:42:18.917Z,1010.62
2018-03-14T09:43:18.857Z,1010.61
2018-03-14T09:44:19.143Z,1010.62
2018-03-14T09:45:18.837Z,1010.64
2018-03-14T09:46:18.782Z,1010.58
2018-03-14T09:47:18.801Z,1010.59
2018-03-14T09:48:18.729Z,1010.53
2018-03-14T09:49:18.704Z,1010.51
2018-03-14T09:50:18.688Z,1010.46
2018-03-14T09:51:18.651Z,1010.49
2018-03-14T09:52:18.635Z,1010.45
2018-03-14T09:53:18.607Z,1010.46
2018-03-14T09:54:18.573Z,1010.43
2018-03-14T09:55:18.553Z,1010.41
2018-03-14T09:56:18.521Z,1010.36
2018-03-14T09:57:18.502Z,1010.35
2018-03-14T09:58:18.473Z,1010.39
2018-03-14T09:59:18.452Z,1010.30
2018-03-14T10:00:18.423Z,1010.23
2018-03-14T10:01:18.402Z,1010.32
2018-03-14T10:02:18.373Z,1010.25
2018-03-14T10:03:18.340Z,1010.34
2018-03-14T10:04:18.317Z,1010.31
2018-03-14T10:05:18.291Z,1010.33
2018-03-14T10:06:18.262Z,1010.32
2018-03-14T10:07:18.490Z,1010.32
2018-03-14T10:08:18.208Z,1010.35
2018-03-14T10:09:18.190Z,1010.37
2018-03-14T10:10:18.161Z,1010.33
2018-03-14T10:11:18.132Z,1010.28
2018-03-14T10:12:18.102Z,1010.27
2018-03-14T10:13:18.085Z,1010.32
2018-03-14T10:14:18.056Z,1010.31
2018-03-14T10:15:18.029Z,1010.28
2018-03-14T10:16:17.996Z,1010.28
2018-03-14T10:17:17.974Z,1010.26
2018-03-14T10:18:17.947Z,1010.28
2018-03-14T10:19:17.965Z,1010.25
2018-03-14T10:20:17.887Z,1010.25
2018-03-14T10:21:17.869Z,1010.25
2018-03-14T10:22:17.898Z,1010.25
2018-03-14T10:23:17.841Z,1010.25
2018-03-14T10:24:17.785Z,1010.27
2018-03-14T10:25:17.810Z,1010.28
2018-03-14T10:26:17.719Z,1010.28
2018-03-14T10:27:17.696Z,1010.26
2018-03-14T10:28:17.673Z,1010.23
2018-03-14T10:29:17.637Z,1010.24
2018-03-14T10:30:17.616Z,1010.20
2018-03-14T10:31:17.884Z,1010.21
2018-03-14T10:32:17.557Z,1010.21
2018-03-14T10:33:17.530Z,1010.24
2018-03-14T10:34:17.505Z,1010.22
2018-03-14T10:35:17.504Z,1010.27
2018-03-14T10:36:17.446Z,1010.33
2018-03-14T10:37:17.424Z,1010.36
2018-03-14T10:38:17.388Z,1010.35
2018-03-14T10:39:17.363Z,1010.39
2018-03-14T10:40:17.336Z,1010.37
2018-03-14T10:41:17.306Z,1010.37
2018-03-14T10:42:17.275Z,1010.40
2018-03-14T10:43:17.245Z,1010.35
2018-03-14T10:44:17.222Z,1010.41
2018-03-14T10:45:17.189Z,1010.37
2018-03-14T10:46:17.167Z,1010.40
2018-03-14T10:47:17.139Z,1010.38
2018-03-14T10:48:17.116Z,1010.34
2018-03-14T10:49:17.131Z,1010.32
2018-03-14T10:50:17.054Z,1010.37
2018-03-14T10:51:17.027Z,1010.39
2018-03-14T10:52:17.000Z,1010.34
2018-03-14T10:53:16.965Z,1010.32
2018-03-14T10:54:16.941Z,1010.32
2018-03-14T10:55:16.911Z,1010.44
2018-03-14T10:56:16.883Z,1010.43
2018-03-14T10:57:16.853Z,1010.43
2018-03-14T10:58:16.830Z,1010.45
2018-03-14T10:59:16.799Z,1010.41
2018-03-14T11:00:16.768Z,1010.42
2018-03-14T11:01:16.737Z,1010.38
2018-03-14T11:02:16.714Z,1010.39
2018-03-14T11:03:16.683Z,1010.43
2018-03-14T11:04:16.656Z,1010.42
2018-03-14T11:05:16.623Z,1010.42
2018-03-14T11:06:16.597Z,1010.44
2018-03-14T11:07:16.568Z,1010.47
2018-03-14T11:08:16.539Z,1010.44
2018-03-14T11:09:16.511Z,1010.43
2018-03-14T11:10:16.485Z,1010.46
2018-03-14T11:11:16.807Z,1010.44
2018-03-14T11:12:16.424Z,1010.47
2018-03-14T11:13:16.398Z,1010.42
2018-03-14T11:14:16.374Z,1010.45
2018-03-14T11:15:16.365Z,1010.46
2018-03-14T11:16:16.309Z,1010.39
2018-03-14T11:17:16.533Z,1010.44
2018-03-14T11:18:16.255Z,1010.46
2018-03-14T11:19:16.226Z,1010.42
2018-03-14T11:20:16.214Z,1010.48
2018-03-14T11:21:16.166Z,1010.46
2018-03-14T11:22:16.142Z,1010.47
2018-03-14T11:23:16.361Z,1010.47
2018-03-14T11:24:16.083Z,1010.48
2018-03-14T11:25:16.069Z,1010.47
2018-03-14T11:26:16.027Z,1010.50
2018-03-14T11:27:15.994Z,1010.51
2018-03-14T11:28:15.971Z,1010.50
2018-03-14T11:29:15.988Z,1010.48
2018-03-14T11:30:15.916Z,1010.45
2018-03-14T11:31:15.885Z,1010.47
2018-03-14T11:32:15.860Z,1010.43
2018-03-14T11:33:15.824Z,1010.52
2018-03-14T11:34:15.810Z,1010.53
2018-03-14T11:35:15.772Z,1010.48
2018-03-14T11:36:15.745Z,1010.50
2018-03-14T11:37:15.712Z,1010.51
2018-03-14T11:38:15.679Z,1010.51
2018-03-14T11:39:15.653Z,1010.54
2018-03-14T11:40:15.623Z,1010.52
2018-03-14T11:41:15.593Z,1010.49
2018-03-14T11:42:15.570Z,1010.49
2018-03-14T11:43:15.545Z,1010.45
2018-03-14T11:44:15.517Z,1010.48
2018-03-14T11:45:15.480Z,1010.47
2018-03-14T11:46:15.459Z,1010.48
2018-03-14T11:47:15.433Z,1010.47
2018-03-14T11:48:15.427Z,1010.52
2018-03-14T11:49:15.366Z,1010.52
2018-03-14T11:50:15.343Z,1010.54
2018-03-14T11:51:15.309Z,1010.57
2018-03-14T11:52:15.630Z,1010.57
2018-03-14T11:53:15.255Z,1010.59
2018-03-14T11:54:15.233Z,1010.59
2018-03-14T11:55:15.194Z,1010.59
2018-03-14T11:56:15.171Z,1010.58
2018-03-14T11:57:15.164Z,1010.56
2018-03-14T11:58:15.109Z,1010.56
2018-03-14T11:59:15.081Z,1010.60
2018-03-14T12:00:15.051Z,1010.60
2018-03-14T12:01:15.028Z,1010.55
2018-03-14T12:02:15.002Z,1010.64
2018-03-14T12:03:15.012Z,1010.60
2018-03-14T12:04:14.942Z,1010.61
2018-03-14T12:05:14.922Z,1010.63